Bloomington, Texas
Current Conditions -  °F | °C
As of 3:20 PM on Saturday 22 Nov 2014 (Local Time) from KPKV Reporting Station
Light Rain Light Rain  
Wind Chill: 69°   Ceiling: 4000
Heat Index: 69°   Visibility: 5mi
Dew Point: 67°   Wind: 17mph
Humidity: 94%   Direction: 150°SSE
Pressure: 29.79"   Gusts: 22mph
Location:  28.65°N, 96.89°W
Report Text: KPKV 222120Z AUTO 15015G19KT 5SM -RA SCT018 BKN040 OVC049 21/20 A2979 RMK AO2 P0004 T02060196
Loading
Personal Weather Stations






























Interactive Weather Map New forecast layout! Learn more

10-Day Weather Forecast

Advertisements
Track Severe Weather on mobile